sensor_id;sensor_type;location;lat;lon;timestamp;temperature;humidity
69944;DHT22;57257;48.408;-4.498;2023-06-14T00:01:19;19.07;66.28
69944;DHT22;57257;48.408;-4.498;2023-06-14T00:03:47;18.99;66.29
69944;DHT22;57257;48.408;-4.498;2023-06-14T00:06:13;18.98;66.43
69944;DHT22;57257;48.408;-4.498;2023-06-14T00:08:39;18.92;66.46
69944;DHT22;57257;48.408;-4.498;2023-06-14T00:11:06;18.89;66.59
69944;DHT22;57257;48.408;-4.498;2023-06-14T00:13:31;18.91;66.52
69944;DHT22;57257;48.408;-4.498;2023-06-14T00:15:57;18.88;66.63
69944;DHT22;57257;48.408;-4.498;2023-06-14T00:18:23;18.82;66.67
69944;DHT22;57257;48.408;-4.498;2023-06-14T00:20:55;18.77;66.68
69944;DHT22;57257;48.408;-4.498;2023-06-14T00:23:20;18.77;67.00
69944;DHT22;57257;48.408;-4.498;2023-06-14T00:25:46;18.79;66.99
69944;DHT22;57257;48.408;-4.498;2023-06-14T00:28:11;18.77;66.93
69944;DHT22;57257;48.408;-4.498;2023-06-14T00:30:37;18.73;66.77
69944;DHT22;57257;48.408;-4.498;2023-06-14T00:33:02;18.72;67.10
69944;DHT22;57257;48.408;-4.498;2023-06-14T00:35:28;18.66;67.11
69944;DHT22;57257;48.408;-4.498;2023-06-14T00:37:53;18.62;67.09
69944;DHT22;57257;48.408;-4.498;2023-06-14T00:40:20;18.61;67.35
69944;DHT22;57257;48.408;-4.498;2023-06-14T00:42:46;18.62;67.30
69944;DHT22;57257;48.408;-4.498;2023-06-14T00:45:12;18.63;67.54
69944;DHT22;57257;48.408;-4.498;2023-06-14T00:47:38;18.63;67.33
69944;DHT22;57257;48.408;-4.498;2023-06-14T00:50:07;18.58;67.53
69944;DHT22;57257;48.408;-4.498;2023-06-14T00:52:33;18.56;67.75
69944;DHT22;57257;48.408;-4.498;2023-06-14T00:55:00;18.59;67.84
69944;DHT22;57257;48.408;-4.498;2023-06-14T00:57:26;18.56;67.75
69944;DHT22;57257;48.408;-4.498;2023-06-14T00:59:51;18.58;67.85
69944;DHT22;57257;48.408;-4.498;2023-06-14T01:02:17;18.53;68.02
69944;DHT22;57257;48.408;-4.498;2023-06-14T01:04:47;18.61;67.84
69944;DHT22;57257;48.408;-4.498;2023-06-14T01:10:20;18.62;68.12
69944;DHT22;57257;48.408;-4.498;2023-06-14T01:13:07;18.63;67.91
69944;DHT22;57257;48.408;-4.498;2023-06-14T01:15:36;18.65;67.94
69944;DHT22;57257;48.408;-4.498;2023-06-14T01:18:03;18.65;68.05
69944;DHT22;57257;48.408;-4.498;2023-06-14T01:20:31;18.62;68.30
69944;DHT22;57257;48.408;-4.498;2023-06-14T01:22:58;18.62;68.33
69944;DHT22;57257;48.408;-4.498;2023-06-14T01:25:23;18.61;68.22
69944;DHT22;57257;48.408;-4.498;2023-06-14T01:27:58;18.53;68.38
69944;DHT22;57257;48.408;-4.498;2023-06-14T01:30:26;18.49;68.36
69944;DHT22;57257;48.408;-4.498;2023-06-14T01:32:53;18.49;68.41
69944;DHT22;57257;48.408;-4.498;2023-06-14T01:35:20;18.48;68.65
69944;DHT22;57257;48.408;-4.498;2023-06-14T01:37:48;18.49;68.73
69944;DHT22;57257;48.408;-4.498;2023-06-14T01:40:15;18.55;68.60
69944;DHT22;57257;48.408;-4.498;2023-06-14T01:42:41;18.53;68.53
69944;DHT22;57257;48.408;-4.498;2023-06-14T01:45:08;18.56;68.52
69944;DHT22;57257;48.408;-4.498;2023-06-14T01:47:34;18.58;68.64
69944;DHT22;57257;48.408;-4.498;2023-06-14T01:50:03;18.56;68.80
69944;DHT22;57257;48.408;-4.498;2023-06-14T01:52:29;18.58;68.67
69944;DHT22;57257;48.408;-4.498;2023-06-14T01:54:54;18.55;69.00
69944;DHT22;57257;48.408;-4.498;2023-06-14T01:57:20;18.55;68.96
69944;DHT22;57257;48.408;-4.498;2023-06-14T01:59:46;18.55;68.99
69944;DHT22;57257;48.408;-4.498;2023-06-14T02:02:16;18.55;69.13
69944;DHT22;57257;48.408;-4.498;2023-06-14T02:04:41;18.53;69.12
69944;DHT22;57257;48.408;-4.498;2023-06-14T02:07:08;18.56;69.29
69944;DHT22;57257;48.408;-4.498;2023-06-14T02:09:34;18.56;69.39
69944;DHT22;57257;48.408;-4.498;2023-06-14T02:12:00;18.61;69.39
69944;DHT22;57257;48.408;-4.498;2023-06-14T02:14:25;18.58;69.00
69944;DHT22;57257;48.408;-4.498;2023-06-14T02:16:51;18.55;69.08
69944;DHT22;57257;48.408;-4.498;2023-06-14T02:19:19;18.51;69.38
69944;DHT22;57257;48.408;-4.498;2023-06-14T02:21:45;18.49;69.23
69944;DHT22;57257;48.408;-4.498;2023-06-14T02:24:10;18.47;69.28
69944;DHT22;57257;48.408;-4.498;2023-06-14T02:26:36;18.47;69.44
69944;DHT22;57257;48.408;-4.498;2023-06-14T02:29:04;18.47;69.57
69944;DHT22;57257;48.408;-4.498;2023-06-14T02:31:31;18.47;69.53
69944;DHT22;57257;48.408;-4.498;2023-06-14T02:33:57;18.47;69.48
69944;DHT22;57257;48.408;-4.498;2023-06-14T02:36:22;18.51;69.70
69944;DHT22;57257;48.408;-4.498;2023-06-14T02:38:48;18.53;69.44
69944;DHT22;57257;48.408;-4.498;2023-06-14T02:41:13;18.48;69.59
69944;DHT22;57257;48.408;-4.498;2023-06-14T02:43:38;18.49;69.66
69944;DHT22;57257;48.408;-4.498;2023-06-14T02:46:04;18.49;69.65
69944;DHT22;57257;48.408;-4.498;2023-06-14T02:48:30;18.51;69.85
69944;DHT22;57257;48.408;-4.498;2023-06-14T02:50:55;18.56;69.87
69944;DHT22;57257;48.408;-4.498;2023-06-14T02:53:22;18.55;69.48
69944;DHT22;57257;48.408;-4.498;2023-06-14T02:55:47;18.52;69.47
69944;DHT22;57257;48.408;-4.498;2023-06-14T02:58:13;18.45;69.77
69944;DHT22;57257;48.408;-4.498;2023-06-14T03:00:39;18.44;69.73
69944;DHT22;57257;48.408;-4.498;2023-06-14T03:03:06;18.42;69.73
69944;DHT22;57257;48.408;-4.498;2023-06-14T03:05:40;18.48;69.86
69944;DHT22;57257;48.408;-4.498;2023-06-14T03:08:06;18.48;69.82
69944;DHT22;57257;48.408;-4.498;2023-06-14T03:10:32;18.49;69.83
69944;DHT22;57257;48.408;-4.498;2023-06-14T03:12:57;18.48;69.89
69944;DHT22;57257;48.408;-4.498;2023-06-14T03:15:23;18.49;70.05
69944;DHT22;57257;48.408;-4.498;2023-06-14T03:17:49;18.48;69.98
69944;DHT22;57257;48.408;-4.498;2023-06-14T03:20:16;18.45;69.93
69944;DHT22;57257;48.408;-4.498;2023-06-14T03:22:41;18.44;69.92
69944;DHT22;57257;48.408;-4.498;2023-06-14T03:25:07;18.48;70.21
69944;DHT22;57257;48.408;-4.498;2023-06-14T03:27:34;18.47;70.25
69944;DHT22;57257;48.408;-4.498;2023-06-14T03:30:00;18.51;70.05
69944;DHT22;57257;48.408;-4.498;2023-06-14T03:32:25;18.51;69.97
69944;DHT22;57257;48.408;-4.498;2023-06-14T03:34:51;18.51;70.05
69944;DHT22;57257;48.408;-4.498;2023-06-14T03:37:17;18.55;70.00
69944;DHT22;57257;48.408;-4.498;2023-06-14T03:39:43;18.51;70.05
69944;DHT22;57257;48.408;-4.498;2023-06-14T03:42:13;18.52;70.01
69944;DHT22;57257;48.408;-4.498;2023-06-14T03:44:39;18.48;69.95
69944;DHT22;57257;48.408;-4.498;2023-06-14T03:47:05;18.39;69.98
69944;DHT22;57257;48.408;-4.498;2023-06-14T03:49:30;18.41;70.03
69944;DHT22;57257;48.408;-4.498;2023-06-14T03:51:56;18.37;70.11
69944;DHT22;57257;48.408;-4.498;2023-06-14T03:54:21;18.37;70.04
69944;DHT22;57257;48.408;-4.498;2023-06-14T03:56:47;18.35;70.14
69944;DHT22;57257;48.408;-4.498;2023-06-14T03:59:12;18.38;70.22
69944;DHT22;57257;48.408;-4.498;2023-06-14T04:01:38;18.35;70.14
69944;DHT22;57257;48.408;-4.498;2023-06-14T04:04:09;18.41;70.30
69944;DHT22;57257;48.408;-4.498;2023-06-14T04:06:35;18.39;70.27
69944;DHT22;57257;48.408;-4.498;2023-06-14T04:09:00;18.41;70.17
69944;DHT22;57257;48.408;-4.498;2023-06-14T04:11:27;18.41;70.20
69944;DHT22;57257;48.408;-4.498;2023-06-14T04:13:54;18.41;70.27
69944;DHT22;57257;48.408;-4.498;2023-06-14T04:16:21;18.44;70.06
69944;DHT22;57257;48.408;-4.498;2023-06-14T04:18:47;18.39;70.13
69944;DHT22;57257;48.408;-4.498;2023-06-14T04:21:13;18.41;70.25
69944;DHT22;57257;48.408;-4.498;2023-06-14T04:23:38;18.42;70.07
69944;DHT22;57257;48.408;-4.498;2023-06-14T04:26:04;18.38;70.26
69944;DHT22;57257;48.408;-4.498;2023-06-14T04:28:29;18.37;70.10
69944;DHT22;57257;48.408;-4.498;2023-06-14T04:30:55;18.34;70.10
69944;DHT22;57257;48.408;-4.498;2023-06-14T04:33:21;18.29;70.17
69944;DHT22;57257;48.408;-4.498;2023-06-14T04:35:48;18.29;70.14
69944;DHT22;57257;48.408;-4.498;2023-06-14T04:38:13;18.29;70.24
69944;DHT22;57257;48.408;-4.498;2023-06-14T04:40:41;18.32;70.15
69944;DHT22;57257;48.408;-4.498;2023-06-14T04:43:11;18.29;70.00
69944;DHT22;57257;48.408;-4.498;2023-06-14T04:45:42;18.27;70.07
69944;DHT22;57257;48.408;-4.498;2023-06-14T04:48:10;18.25;69.94
69944;DHT22;57257;48.408;-4.498;2023-06-14T04:50:35;18.24;69.93
69944;DHT22;57257;48.408;-4.498;2023-06-14T04:53:01;18.27;70.09
69944;DHT22;57257;48.408;-4.498;2023-06-14T04:55:26;18.24;70.15
69944;DHT22;57257;48.408;-4.498;2023-06-14T04:57:52;18.28;70.07
69944;DHT22;57257;48.408;-4.498;2023-06-14T05:00:20;18.29;70.15
69944;DHT22;57257;48.408;-4.498;2023-06-14T05:02:46;18.32;69.97
69944;DHT22;57257;48.408;-4.498;2023-06-14T05:05:12;18.34;69.97
69944;DHT22;57257;48.408;-4.498;2023-06-14T05:07:37;18.34;70.02
69944;DHT22;57257;48.408;-4.498;2023-06-14T05:10:03;18.34;69.93
69944;DHT22;57257;48.408;-4.498;2023-06-14T05:12:29;18.35;69.98
69944;DHT22;57257;48.408;-4.498;2023-06-14T05:14:54;18.38;69.87
69944;DHT22;57257;48.408;-4.498;2023-06-14T05:17:20;18.39;69.79
69944;DHT22;57257;48.408;-4.498;2023-06-14T05:19:45;18.38;69.87
69944;DHT22;57257;48.408;-4.498;2023-06-14T05:22:11;18.41;69.80
69944;DHT22;57257;48.408;-4.498;2023-06-14T05:24:36;18.42;69.78
69944;DHT22;57257;48.408;-4.498;2023-06-14T05:27:02;18.44;69.71
69944;DHT22;57257;48.408;-4.498;2023-06-14T05:29:28;18.42;69.78
69944;DHT22;57257;48.408;-4.498;2023-06-14T05:31:53;18.41;69.82
69944;DHT22;57257;48.408;-4.498;2023-06-14T05:34:19;18.39;69.90
69944;DHT22;57257;48.408;-4.498;2023-06-14T05:36:44;18.41;69.77
69944;DHT22;57257;48.408;-4.498;2023-06-14T05:39:10;18.42;69.79
69944;DHT22;57257;48.408;-4.498;2023-06-14T05:41:35;18.42;69.81
69944;DHT22;57257;48.408;-4.498;2023-06-14T05:44:01;18.47;69.85
69944;DHT22;57257;48.408;-4.498;2023-06-14T05:46:26;18.51;69.85
69944;DHT22;57257;48.408;-4.498;2023-06-14T05:48:52;18.55;69.97
69944;DHT22;57257;48.408;-4.498;2023-06-14T05:51:18;18.55;69.99
69944;DHT22;57257;48.408;-4.498;2023-06-14T05:53:46;18.62;69.94
69944;DHT22;57257;48.408;-4.498;2023-06-14T05:56:13;18.61;69.61
69944;DHT22;57257;48.408;-4.498;2023-06-14T05:58:39;18.58;69.59
69944;DHT22;57257;48.408;-4.498;2023-06-14T06:01:04;18.55;69.57
69944;DHT22;57257;48.408;-4.498;2023-06-14T06:03:30;18.52;69.89
69944;DHT22;57257;48.408;-4.498;2023-06-14T06:05:55;18.51;69.90
69944;DHT22;57257;48.408;-4.498;2023-06-14T06:08:21;18.55;70.10
69944;DHT22;57257;48.408;-4.498;2023-06-14T06:10:46;18.63;70.06
69944;DHT22;57257;48.408;-4.498;2023-06-14T06:13:12;18.62;70.21
69944;DHT22;57257;48.408;-4.498;2023-06-14T06:15:37;18.66;70.05
69944;DHT22;57257;48.408;-4.498;2023-06-14T06:18:03;18.69;70.21
69944;DHT22;57257;48.408;-4.498;2023-06-14T06:20:29;18.76;70.05
69944;DHT22;57257;48.408;-4.498;2023-06-14T06:22:57;18.76;69.99
69944;DHT22;57257;48.408;-4.498;2023-06-14T06:25:23;18.81;70.04
69944;DHT22;57257;48.408;-4.498;2023-06-14T06:27:51;18.82;69.90
69944;DHT22;57257;48.408;-4.498;2023-06-14T06:30:17;18.89;69.96
69944;DHT22;57257;48.408;-4.498;2023-06-14T06:32:43;18.91;69.97
69944;DHT22;57257;48.408;-4.498;2023-06-14T06:35:08;18.93;69.97
69944;DHT22;57257;48.408;-4.498;2023-06-14T06:37:36;18.96;70.16
69944;DHT22;57257;48.408;-4.498;2023-06-14T06:40:01;18.99;70.00
69944;DHT22;57257;48.408;-4.498;2023-06-14T06:42:29;19.03;69.81
69944;DHT22;57257;48.408;-4.498;2023-06-14T06:44:54;19.02;69.80
69944;DHT22;57257;48.408;-4.498;2023-06-14T06:47:20;19.04;69.84
69944;DHT22;57257;48.408;-4.498;2023-06-14T06:49:45;19.06;69.90
69944;DHT22;57257;48.408;-4.498;2023-06-14T06:52:10;19.12;69.81
69944;DHT22;57257;48.408;-4.498;2023-06-14T06:54:36;19.16;69.68
69944;DHT22;57257;48.408;-4.498;2023-06-14T06:57:01;19.14;69.36
69944;DHT22;57257;48.408;-4.498;2023-06-14T06:59:27;19.14;69.24
69944;DHT22;57257;48.408;-4.498;2023-06-14T07:01:53;19.17;69.17
69944;DHT22;57257;48.408;-4.498;2023-06-14T07:04:18;19.19;69.10
69944;DHT22;57257;48.408;-4.498;2023-06-14T07:06:46;19.17;69.02
69944;DHT22;57257;48.408;-4.498;2023-06-14T07:09:12;19.17;69.02
69944;DHT22;57257;48.408;-4.498;2023-06-14T07:11:39;19.22;69.06
69944;DHT22;57257;48.408;-4.498;2023-06-14T07:14:05;19.23;68.87
69944;DHT22;57257;48.408;-4.498;2023-06-14T07:16:31;19.22;69.09
69944;DHT22;57257;48.408;-4.498;2023-06-14T07:18:57;19.28;69.03
69944;DHT22;57257;48.408;-4.498;2023-06-14T07:21:22;19.30;69.11
69944;DHT22;57257;48.408;-4.498;2023-06-14T07:23:48;19.37;69.15
69944;DHT22;57257;48.408;-4.498;2023-06-14T07:26:13;19.46;69.14
69944;DHT22;57257;48.408;-4.498;2023-06-14T07:28:38;19.53;68.95
69944;DHT22;57257;48.408;-4.498;2023-06-14T07:31:04;19.58;68.83
69944;DHT22;57257;48.408;-4.498;2023-06-14T07:33:30;19.60;68.55
69944;DHT22;57257;48.408;-4.498;2023-06-14T07:35:55;19.66;68.52
69944;DHT22;57257;48.408;-4.498;2023-06-14T07:38:21;19.70;68.38
69944;DHT22;57257;48.408;-4.498;2023-06-14T07:40:46;19.71;68.32
69944;DHT22;57257;48.408;-4.498;2023-06-14T07:43:12;19.75;68.47
69944;DHT22;57257;48.408;-4.498;2023-06-14T07:45:37;19.82;68.29
69944;DHT22;57257;48.408;-4.498;2023-06-14T07:48:03;19.88;68.09
69944;DHT22;57257;48.408;-4.498;2023-06-14T07:50:29;19.87;68.00
69944;DHT22;57257;48.408;-4.498;2023-06-14T07:52:55;19.88;68.02
69944;DHT22;57257;48.408;-4.498;2023-06-14T07:55:20;19.92;67.76
69944;DHT22;57257;48.408;-4.498;2023-06-14T07:57:46;19.90;67.81
69944;DHT22;57257;48.408;-4.498;2023-06-14T08:00:12;19.90;67.88
69944;DHT22;57257;48.408;-4.498;2023-06-14T08:02:44;19.94;67.73
69944;DHT22;57257;48.408;-4.498;2023-06-14T08:05:10;19.92;67.75
69944;DHT22;57257;48.408;-4.498;2023-06-14T08:07:39;19.97;68.01
69944;DHT22;57257;48.408;-4.498;2023-06-14T08:10:05;20.02;68.01
69944;DHT22;57257;48.408;-4.498;2023-06-14T08:12:32;20.09;68.07
69944;DHT22;57257;48.408;-4.498;2023-06-14T08:14:57;20.11;68.02
69944;DHT22;57257;48.408;-4.498;2023-06-14T08:17:26;20.18;67.95
69944;DHT22;57257;48.408;-4.498;2023-06-14T08:19:56;20.17;68.02
69944;DHT22;57257;48.408;-4.498;2023-06-14T08:22:22;20.19;67.93
69944;DHT22;57257;48.408;-4.498;2023-06-14T08:24:49;20.19;68.28
69944;DHT22;57257;48.408;-4.498;2023-06-14T08:27:15;20.21;68.26
69944;DHT22;57257;48.408;-4.498;2023-06-14T08:29:41;20.24;68.21
69944;DHT22;57257;48.408;-4.498;2023-06-14T08:32:07;20.24;68.14
69944;DHT22;57257;48.408;-4.498;2023-06-14T08:34:32;20.24;68.02
69944;DHT22;57257;48.408;-4.498;2023-06-14T08:36:57;20.26;68.07
69944;DHT22;57257;48.408;-4.498;2023-06-14T08:39:23;20.28;67.98
69944;DHT22;57257;48.408;-4.498;2023-06-14T08:41:50;20.31;67.89
69944;DHT22;57257;48.408;-4.498;2023-06-14T08:44:17;20.35;68.09
69944;DHT22;57257;48.408;-4.498;2023-06-14T08:46:43;20.46;67.99
69944;DHT22;57257;48.408;-4.498;2023-06-14T08:49:11;20.56;67.76
69944;DHT22;57257;48.408;-4.498;2023-06-14T08:51:38;20.62;67.43
69944;DHT22;57257;48.408;-4.498;2023-06-14T08:54:04;20.68;67.18
69944;DHT22;57257;48.408;-4.498;2023-06-14T08:56:31;20.71;67.06
69944;DHT22;57257;48.408;-4.498;2023-06-14T08:58:58;20.80;66.80
69944;DHT22;57257;48.408;-4.498;2023-06-14T09:01:28;20.86;66.56
69944;DHT22;57257;48.408;-4.498;2023-06-14T09:03:53;20.90;66.23
69944;DHT22;57257;48.408;-4.498;2023-06-14T09:06:23;20.89;66.04
69944;DHT22;57257;48.408;-4.498;2023-06-14T09:08:49;20.89;65.83
69944;DHT22;57257;48.408;-4.498;2023-06-14T09:11:17;20.86;65.72
69944;DHT22;57257;48.408;-4.498;2023-06-14T09:13:44;20.85;66.07
69944;DHT22;57257;48.408;-4.498;2023-06-14T09:16:10;20.93;66.15
69944;DHT22;57257;48.408;-4.498;2023-06-14T09:21:07;21.19;65.79
69944;DHT22;57257;48.408;-4.498;2023-06-14T09:23:40;21.22;65.34
69944;DHT22;57257;48.408;-4.498;2023-06-14T09:26:10;21.27;65.21
69944;DHT22;57257;48.408;-4.498;2023-06-14T09:28:36;21.27;65.14
69944;DHT22;57257;48.408;-4.498;2023-06-14T09:31:07;21.27;65.17
69944;DHT22;57257;48.408;-4.498;2023-06-14T09:33:34;21.31;65.17
69944;DHT22;57257;48.408;-4.498;2023-06-14T09:35:59;21.34;65.17
69944;DHT22;57257;48.408;-4.498;2023-06-14T09:38:25;21.43;65.09
69944;DHT22;57257;48.408;-4.498;2023-06-14T09:40:51;21.50;64.57
69944;DHT22;57257;48.408;-4.498;2023-06-14T09:43:17;21.60;64.62
69944;DHT22;57257;48.408;-4.498;2023-06-14T09:45:44;21.61;64.73
69944;DHT22;57257;48.408;-4.498;2023-06-14T09:48:11;21.62;64.65
69944;DHT22;57257;48.408;-4.498;2023-06-14T09:50:37;21.64;64.52
69944;DHT22;57257;48.408;-4.498;2023-06-14T09:53:06;21.64;64.42
69944;DHT22;57257;48.408;-4.498;2023-06-14T09:55:34;21.64;64.05
69944;DHT22;57257;48.408;-4.498;2023-06-14T09:58:04;21.60;64.33
69944;DHT22;57257;48.408;-4.498;2023-06-14T10:00:32;21.60;64.40
69944;DHT22;57257;48.408;-4.498;2023-06-14T10:03:03;21.58;64.50
69944;DHT22;57257;48.408;-4.498;2023-06-14T10:05:29;21.65;64.39
69944;DHT22;57257;48.408;-4.498;2023-06-14T10:08:04;21.71;64.21
69944;DHT22;57257;48.408;-4.498;2023-06-14T10:10:30;21.80;64.01
69944;DHT22;57257;48.408;-4.498;2023-06-14T10:12:56;21.84;63.82
69944;DHT22;57257;48.408;-4.498;2023-06-14T10:21:13;22.01;63.41
69944;DHT22;57257;48.408;-4.498;2023-06-14T10:23:42;22.06;63.35
69944;DHT22;57257;48.408;-4.498;2023-06-14T10:26:23;22.12;63.13
69944;DHT22;57257;48.408;-4.498;2023-06-14T10:28:58;22.15;63.03
69944;DHT22;57257;48.408;-4.498;2023-06-14T10:31:40;22.12;63.08
69944;DHT22;57257;48.408;-4.498;2023-06-14T10:34:06;22.11;62.64
69944;DHT22;57257;48.408;-4.498;2023-06-14T10:36:31;22.06;62.95
69944;DHT22;57257;48.408;-4.498;2023-06-14T10:39:14;22.12;63.11
69944;DHT22;57257;48.408;-4.498;2023-06-14T10:41:41;22.21;62.76
69944;DHT22;57257;48.408;-4.498;2023-06-14T10:46:39;22.32;62.59
69944;DHT22;57257;48.408;-4.498;2023-06-14T10:49:05;22.41;62.52
69944;DHT22;57257;48.408;-4.498;2023-06-14T10:51:42;22.51;62.01
69944;DHT22;57257;48.408;-4.498;2023-06-14T10:54:13;22.53;61.73
69944;DHT22;57257;48.408;-4.498;2023-06-14T10:56:46;22.66;61.66
69944;DHT22;57257;48.408;-4.498;2023-06-14T10:59:12;22.77;61.15
69944;DHT22;57257;48.408;-4.498;2023-06-14T11:01:58;22.83;61.14
69944;DHT22;57257;48.408;-4.498;2023-06-14T11:04:49;22.89;61.12
69944;DHT22;57257;48.408;-4.498;2023-06-14T11:10:15;23.17;60.48
69944;DHT22;57257;48.408;-4.498;2023-06-14T11:12:47;23.37;60.08
69944;DHT22;57257;48.408;-4.498;2023-06-14T11:15:13;23.57;59.98
69944;DHT22;57257;48.408;-4.498;2023-06-14T11:17:39;23.70;59.52
69944;DHT22;57257;48.408;-4.498;2023-06-14T11:20:15;23.77;59.32
69944;DHT22;57257;48.408;-4.498;2023-06-14T11:22:43;23.91;59.17
69944;DHT22;57257;48.408;-4.498;2023-06-14T11:25:11;24.08;58.93
69944;DHT22;57257;48.408;-4.498;2023-06-14T11:27:36;24.29;58.45
69944;DHT22;57257;48.408;-4.498;2023-06-14T11:30:02;24.46;58.25
69944;DHT22;57257;48.408;-4.498;2023-06-14T11:32:31;24.49;57.46
69944;DHT22;57257;48.408;-4.498;2023-06-14T11:34:57;24.51;57.12
69944;DHT22;57257;48.408;-4.498;2023-06-14T11:37:25;24.45;57.40
69944;DHT22;57257;48.408;-4.498;2023-06-14T11:39:51;24.59;57.31
69944;DHT22;57257;48.408;-4.498;2023-06-14T11:42:17;24.65;56.61
69944;DHT22;57257;48.408;-4.498;2023-06-14T11:44:46;24.77;56.70
69944;DHT22;57257;48.408;-4.498;2023-06-14T11:47:12;24.93;56.63
69944;DHT22;57257;48.408;-4.498;2023-06-14T11:49:38;25.14;56.10
69944;DHT22;57257;48.408;-4.498;2023-06-14T11:52:04;25.10;55.81
69944;DHT22;57257;48.408;-4.498;2023-06-14T11:54:31;25.07;55.84
69944;DHT22;57257;48.408;-4.498;2023-06-14T11:56:56;25.27;55.79
69944;DHT22;57257;48.408;-4.498;2023-06-14T11:59:22;25.48;55.58
69944;DHT22;57257;48.408;-4.498;2023-06-14T12:01:47;25.60;55.48
69944;DHT22;57257;48.408;-4.498;2023-06-14T12:04:13;25.52;54.99
69944;DHT22;57257;48.408;-4.498;2023-06-14T12:06:39;25.47;55.22
69944;DHT22;57257;48.408;-4.498;2023-06-14T12:09:08;25.50;54.96
69944;DHT22;57257;48.408;-4.498;2023-06-14T12:11:38;25.54;54.36
69944;DHT22;57257;48.408;-4.498;2023-06-14T12:14:04;25.61;54.54
69944;DHT22;57257;48.408;-4.498;2023-06-14T12:16:34;25.75;54.51
69944;DHT22;57257;48.408;-4.498;2023-06-14T12:19:13;25.91;53.97
69944;DHT22;57257;48.408;-4.498;2023-06-14T12:21:39;26.05;53.71
69944;DHT22;57257;48.408;-4.498;2023-06-14T12:24:08;26.11;53.43
69944;DHT22;57257;48.408;-4.498;2023-06-14T12:26:33;26.06;53.83
69944;DHT22;57257;48.408;-4.498;2023-06-14T12:29:05;26.12;53.21
69944;DHT22;57257;48.408;-4.498;2023-06-14T12:31:30;26.04;53.10
69944;DHT22;57257;48.408;-4.498;2023-06-14T12:33:55;25.98;53.63
69944;DHT22;57257;48.408;-4.498;2023-06-14T12:36:21;25.95;53.69
69944;DHT22;57257;48.408;-4.498;2023-06-14T12:38:46;26.01;53.60
69944;DHT22;57257;48.408;-4.498;2023-06-14T12:41:12;26.15;53.83
69944;DHT22;57257;48.408;-4.498;2023-06-14T12:43:39;26.32;52.98
69944;DHT22;57257;48.408;-4.498;2023-06-14T12:46:05;26.25;53.05
69944;DHT22;57257;48.408;-4.498;2023-06-14T12:48:31;26.22;52.83
69944;DHT22;57257;48.408;-4.498;2023-06-14T12:50:57;26.24;52.35
69944;DHT22;57257;48.408;-4.498;2023-06-14T12:53:23;26.24;52.31
69944;DHT22;57257;48.408;-4.498;2023-06-14T12:55:49;26.26;52.67
69944;DHT22;57257;48.408;-4.498;2023-06-14T12:58:15;26.31;52.58
69944;DHT22;57257;48.408;-4.498;2023-06-14T13:00:42;26.42;52.04
69944;DHT22;57257;48.408;-4.498;2023-06-14T13:03:09;26.39;52.26
69944;DHT22;57257;48.408;-4.498;2023-06-14T13:05:34;26.47;52.25
69944;DHT22;57257;48.408;-4.498;2023-06-14T13:08:00;26.55;52.09
69944;DHT22;57257;48.408;-4.498;2023-06-14T13:10:26;26.56;51.54
69944;DHT22;57257;48.408;-4.498;2023-06-14T13:12:52;26.59;51.79
69944;DHT22;57257;48.408;-4.498;2023-06-14T13:15:17;26.67;51.53
69944;DHT22;57257;48.408;-4.498;2023-06-14T13:17:43;26.67;51.32
69944;DHT22;57257;48.408;-4.498;2023-06-14T13:20:13;26.70;51.47
69944;DHT22;57257;48.408;-4.498;2023-06-14T13:22:39;26.84;51.82
69944;DHT22;57257;48.408;-4.498;2023-06-14T13:25:05;26.99;51.11
69944;DHT22;57257;48.408;-4.498;2023-06-14T13:27:31;27.07;50.82
69944;DHT22;57257;48.408;-4.498;2023-06-14T13:29:56;27.11;50.98
69944;DHT22;57257;48.408;-4.498;2023-06-14T13:32:22;27.11;50.61
69944;DHT22;57257;48.408;-4.498;2023-06-14T13:34:48;27.11;50.24
69944;DHT22;57257;48.408;-4.498;2023-06-14T13:37:13;27.12;50.21
69944;DHT22;57257;48.408;-4.498;2023-06-14T13:39:39;27.12;50.48
69944;DHT22;57257;48.408;-4.498;2023-06-14T13:42:05;27.23;50.19
69944;DHT22;57257;48.408;-4.498;2023-06-14T13:44:30;27.30;50.27
69944;DHT22;57257;48.408;-4.498;2023-06-14T13:46:55;27.38;49.81
69944;DHT22;57257;48.408;-4.498;2023-06-14T13:49:22;27.55;50.25
69944;DHT22;57257;48.408;-4.498;2023-06-14T13:51:47;27.59;49.81
69944;DHT22;57257;48.408;-4.498;2023-06-14T13:54:13;27.58;49.04
69944;DHT22;57257;48.408;-4.498;2023-06-14T13:56:42;27.64;49.09
69944;DHT22;57257;48.408;-4.498;2023-06-14T13:59:07;27.69;49.47
69944;DHT22;57257;48.408;-4.498;2023-06-14T14:01:33;27.81;48.46
69944;DHT22;57257;48.408;-4.498;2023-06-14T14:03:58;27.82;48.51
69944;DHT22;57257;48.408;-4.498;2023-06-14T14:06:26;27.91;48.76
69944;DHT22;57257;48.408;-4.498;2023-06-14T14:08:51;27.92;48.41
69944;DHT22;57257;48.408;-4.498;2023-06-14T14:11:18;27.84;48.55
69944;DHT22;57257;48.408;-4.498;2023-06-14T14:13:44;27.94;48.66
69944;DHT22;57257;48.408;-4.498;2023-06-14T14:16:10;27.99;48.34
69944;DHT22;57257;48.408;-4.498;2023-06-14T14:18:36;28.01;48.14
69944;DHT22;57257;48.408;-4.498;2023-06-14T14:21:02;28.06;48.21
69944;DHT22;57257;48.408;-4.498;2023-06-14T14:23:28;28.06;47.99
69944;DHT22;57257;48.408;-4.498;2023-06-14T14:25:53;28.08;47.78
69944;DHT22;57257;48.408;-4.498;2023-06-14T14:28:19;28.15;48.08
69944;DHT22;57257;48.408;-4.498;2023-06-14T14:30:46;28.19;47.56
69944;DHT22;57257;48.408;-4.498;2023-06-14T14:33:15;28.29;47.77
69944;DHT22;57257;48.408;-4.498;2023-06-14T14:35:45;28.42;47.55
69944;DHT22;57257;48.408;-4.498;2023-06-14T14:38:12;28.50;47.26
69944;DHT22;57257;48.408;-4.498;2023-06-14T14:40:38;28.40;46.58
69944;DHT22;57257;48.408;-4.498;2023-06-14T14:43:04;28.37;46.40
69944;DHT22;57257;48.408;-4.498;2023-06-14T14:45:30;28.36;46.88
69944;DHT22;57257;48.408;-4.498;2023-06-14T14:47:55;28.43;46.92
69944;DHT22;57257;48.408;-4.498;2023-06-14T14:50:21;28.39;46.41
69944;DHT22;57257;48.408;-4.498;2023-06-14T14:52:46;28.35;46.53
69944;DHT22;57257;48.408;-4.498;2023-06-14T14:55:12;28.47;46.56
69944;DHT22;57257;48.408;-4.498;2023-06-14T14:57:37;28.64;46.75
69944;DHT22;57257;48.408;-4.498;2023-06-14T15:00:06;28.83;46.26
69944;DHT22;57257;48.408;-4.498;2023-06-14T15:02:31;28.93;45.45
69944;DHT22;57257;48.408;-4.498;2023-06-14T15:04:57;28.91;45.61
69944;DHT22;57257;48.408;-4.498;2023-06-14T15:07:32;28.99;45.32
69944;DHT22;57257;48.408;-4.498;2023-06-14T15:09:59;29.04;45.64
69944;DHT22;57257;48.408;-4.498;2023-06-14T15:12:24;29.12;45.12
69944;DHT22;57257;48.408;-4.498;2023-06-14T15:14:50;29.14;45.18
69944;DHT22;57257;48.408;-4.498;2023-06-14T15:17:19;29.31;45.65
69944;DHT22;57257;48.408;-4.498;2023-06-14T15:19:46;29.47;44.84
69944;DHT22;57257;48.408;-4.498;2023-06-14T15:22:12;29.45;44.20
69944;DHT22;57257;48.408;-4.498;2023-06-14T15:24:38;29.45;44.54
69944;DHT22;57257;48.408;-4.498;2023-06-14T15:27:04;29.48;44.18
69944;DHT22;57257;48.408;-4.498;2023-06-14T15:29:29;29.52;43.54